sensor_id;sensor_type;location;lat;lon;timestamp;noise_LAeq;noise_LA_min;noise_LA_max;noise_LA01;noise_LA95
72736;Laerm;60856;53.238;10.448;2023-04-24T00:05:38;46.60;45.27;50.26;;
72736;Laerm;60856;53.238;10.448;2023-04-24T00:11:11;46.59;45.40;50.01;;
72736;Laerm;60856;53.238;10.448;2023-04-24T00:13:53;46.62;45.29;49.54;;
72736;Laerm;60856;53.238;10.448;2023-04-24T00:16:22;46.62;45.16;49.55;;
72736;Laerm;60856;53.238;10.448;2023-04-24T00:18:57;46.60;45.24;49.99;;
72736;Laerm;60856;53.238;10.448;2023-04-24T00:21:27;46.57;45.12;50.02;;
72736;Laerm;60856;53.238;10.448;2023-04-24T00:24:16;46.59;45.13;50.28;;
72736;Laerm;60856;53.238;10.448;2023-04-24T00:26:42;46.58;45.39;49.62;;
72736;Laerm;60856;53.238;10.448;2023-04-24T00:29:10;46.59;45.19;49.89;;
72736;Laerm;60856;53.238;10.448;2023-04-24T00:31:37;46.61;44.96;49.56;;
72736;Laerm;60856;53.238;10.448;2023-04-24T00:34:06;46.58;44.99;49.82;;
72736;Laerm;60856;53.238;10.448;2023-04-24T00:36:34;46.60;45.19;49.90;;
72736;Laerm;60856;53.238;10.448;2023-04-24T00:39:01;46.60;45.22;50.40;;
72736;Laerm;60856;53.238;10.448;2023-04-24T00:41:26;46.59;45.34;50.01;;
72736;Laerm;60856;53.238;10.448;2023-04-24T00:43:53;46.59;45.31;49.93;;
72736;Laerm;60856;53.238;10.448;2023-04-24T00:46:18;46.58;45.30;49.88;;
72736;Laerm;60856;53.238;10.448;2023-04-24T00:48:44;46.58;45.37;49.83;;
72736;Laerm;60856;53.238;10.448;2023-04-24T00:51:10;46.59;45.32;49.69;;
72736;Laerm;60856;53.238;10.448;2023-04-24T00:53:35;46.60;45.29;49.93;;
72736;Laerm;60856;53.238;10.448;2023-04-24T00:56:10;46.59;45.29;49.90;;
72736;Laerm;60856;53.238;10.448;2023-04-24T00:58:40;46.61;45.33;49.92;;
72736;Laerm;60856;53.238;10.448;2023-04-24T01:01:20;46.60;45.35;49.52;;
72736;Laerm;60856;53.238;10.448;2023-04-24T01:03:46;46.59;45.31;49.79;;
72736;Laerm;60856;53.238;10.448;2023-04-24T01:06:14;46.59;45.35;49.57;;
72736;Laerm;60856;53.238;10.448;2023-04-24T01:08:41;46.61;45.25;50.43;;
72736;Laerm;60856;53.238;10.448;2023-04-24T01:11:07;46.60;45.27;49.80;;
72736;Laerm;60856;53.238;10.448;2023-04-24T01:13:32;46.59;45.01;49.69;;
72736;Laerm;60856;53.238;10.448;2023-04-24T01:15:58;46.60;45.39;49.91;;
72736;Laerm;60856;53.238;10.448;2023-04-24T01:18:25;46.57;45.17;50.86;;
72736;Laerm;60856;53.238;10.448;2023-04-24T01:20:53;46.59;45.29;50.34;;
72736;Laerm;60856;53.238;10.448;2023-04-24T01:23:22;46.59;45.36;50.04;;
72736;Laerm;60856;53.238;10.448;2023-04-24T01:25:48;46.59;45.26;49.66;;
72736;Laerm;60856;53.238;10.448;2023-04-24T01:28:18;46.61;45.34;50.37;;
72736;Laerm;60856;53.238;10.448;2023-04-24T01:30:45;46.58;45.33;49.81;;
72736;Laerm;60856;53.238;10.448;2023-04-24T01:33:11;46.60;45.26;49.79;;
72736;Laerm;60856;53.238;10.448;2023-04-24T01:35:38;46.60;45.28;50.04;;
72736;Laerm;60856;53.238;10.448;2023-04-24T01:38:03;46.60;45.22;49.74;;
72736;Laerm;60856;53.238;10.448;2023-04-24T01:40:32;46.61;45.35;50.64;;
72736;Laerm;60856;53.238;10.448;2023-04-24T01:42:58;46.58;45.25;49.55;;
72736;Laerm;60856;53.238;10.448;2023-04-24T01:45:24;46.61;45.11;49.91;;
72736;Laerm;60856;53.238;10.448;2023-04-24T01:47:50;46.60;45.31;50.04;;
72736;Laerm;60856;53.238;10.448;2023-04-24T01:50:18;46.60;45.25;49.71;;
72736;Laerm;60856;53.238;10.448;2023-04-24T01:52:44;46.58;45.26;49.73;;
72736;Laerm;60856;53.238;10.448;2023-04-24T01:55:12;46.60;45.27;49.89;;
72736;Laerm;60856;53.238;10.448;2023-04-24T01:57:41;46.57;45.34;49.77;;
72736;Laerm;60856;53.238;10.448;2023-04-24T02:03:09;46.58;44.99;49.80;;
72736;Laerm;60856;53.238;10.448;2023-04-24T02:05:35;46.57;45.18;49.91;;
72736;Laerm;60856;53.238;10.448;2023-04-24T02:08:00;46.59;45.36;49.83;;
72736;Laerm;60856;53.238;10.448;2023-04-24T02:10:25;46.59;45.29;50.00;;
72736;Laerm;60856;53.238;10.448;2023-04-24T02:12:50;46.59;45.30;49.66;;
72736;Laerm;60856;53.238;10.448;2023-04-24T02:15:16;46.59;45.32;49.81;;
72736;Laerm;60856;53.238;10.448;2023-04-24T02:17:42;46.58;45.39;49.84;;
72736;Laerm;60856;53.238;10.448;2023-04-24T02:20:09;46.59;45.32;49.77;;
72736;Laerm;60856;53.238;10.448;2023-04-24T02:22:34;46.59;45.35;49.70;;
72736;Laerm;60856;53.238;10.448;2023-04-24T02:25:00;46.59;45.08;50.41;;
72736;Laerm;60856;53.238;10.448;2023-04-24T02:27:25;46.57;45.10;49.65;;
72736;Laerm;60856;53.238;10.448;2023-04-24T02:29:51;46.61;45.32;49.86;;
72736;Laerm;60856;53.238;10.448;2023-04-24T02:32:16;46.58;45.17;50.67;;
72736;Laerm;60856;53.238;10.448;2023-04-24T02:34:41;46.57;45.12;49.76;;
72736;Laerm;60856;53.238;10.448;2023-04-24T02:37:07;46.58;45.18;49.65;;
72736;Laerm;60856;53.238;10.448;2023-04-24T02:39:32;46.58;45.32;50.02;;
72736;Laerm;60856;53.238;10.448;2023-04-24T02:41:59;46.58;45.31;49.66;;
72736;Laerm;60856;53.238;10.448;2023-04-24T02:45:03;46.59;45.28;49.82;;
72736;Laerm;60856;53.238;10.448;2023-04-24T02:47:33;46.58;44.99;49.94;;
72736;Laerm;60856;53.238;10.448;2023-04-24T02:50:40;46.58;45.07;49.84;;
72736;Laerm;60856;53.238;10.448;2023-04-24T02:56:47;46.58;45.13;50.01;;
72736;Laerm;60856;53.238;10.448;2023-04-24T03:02:54;46.57;45.17;49.50;;
72736;Laerm;60856;53.238;10.448;2023-04-24T03:05:33;46.57;45.24;49.90;;
72736;Laerm;60856;53.238;10.448;2023-04-24T03:11:53;46.58;45.22;49.75;;
72736;Laerm;60856;53.238;10.448;2023-04-24T03:14:41;46.59;45.22;50.58;;
72736;Laerm;60856;53.238;10.448;2023-04-24T03:20:13;46.59;45.16;49.96;;
72736;Laerm;60856;53.238;10.448;2023-04-24T03:22:53;46.58;45.25;49.43;;
72736;Laerm;60856;53.238;10.448;2023-04-24T03:25:31;46.58;45.41;50.01;;
72736;Laerm;60856;53.238;10.448;2023-04-24T03:28:20;46.58;45.22;50.02;;
72736;Laerm;60856;53.238;10.448;2023-04-24T03:31:08;46.58;45.26;49.76;;
72736;Laerm;60856;53.238;10.448;2023-04-24T03:33:35;46.59;45.20;50.67;;
72736;Laerm;60856;53.238;10.448;2023-04-24T03:36:06;46.60;45.35;49.90;;
72736;Laerm;60856;53.238;10.448;2023-04-24T03:38:47;46.56;45.43;49.97;;
72736;Laerm;60856;53.238;10.448;2023-04-24T03:41:20;46.57;45.31;50.50;;
72736;Laerm;60856;53.238;10.448;2023-04-24T03:43:50;46.59;45.10;49.83;;
72736;Laerm;60856;53.238;10.448;2023-04-24T03:46:18;46.58;45.32;49.88;;
72736;Laerm;60856;53.238;10.448;2023-04-24T03:48:57;46.60;44.93;49.75;;
72736;Laerm;60856;53.238;10.448;2023-04-24T03:51:23;46.57;45.21;49.91;;
72736;Laerm;60856;53.238;10.448;2023-04-24T03:53:52;46.58;45.20;49.95;;
72736;Laerm;60856;53.238;10.448;2023-04-24T03:56:39;46.57;45.09;50.03;;
72736;Laerm;60856;53.238;10.448;2023-04-24T03:59:12;46.58;45.16;50.12;;
72736;Laerm;60856;53.238;10.448;2023-04-24T04:01:45;46.60;45.18;49.50;;
72736;Laerm;60856;53.238;10.448;2023-04-24T04:07:34;46.59;45.18;49.78;;
72736;Laerm;60856;53.238;10.448;2023-04-24T04:10:00;46.57;45.33;49.83;;
72736;Laerm;60856;53.238;10.448;2023-04-24T04:12:25;46.57;45.22;49.57;;
72736;Laerm;60856;53.238;10.448;2023-04-24T04:14:50;46.57;45.22;49.76;;
72736;Laerm;60856;53.238;10.448;2023-04-24T04:17:15;46.58;45.39;49.56;;
72736;Laerm;60856;53.238;10.448;2023-04-24T04:19:40;46.58;45.33;50.44;;
72736;Laerm;60856;53.238;10.448;2023-04-24T04:22:06;46.58;45.26;49.55;;
72736;Laerm;60856;53.238;10.448;2023-04-24T04:24:33;46.60;45.15;50.02;;
72736;Laerm;60856;53.238;10.448;2023-04-24T04:26:58;46.59;45.25;49.57;;
72736;Laerm;60856;53.238;10.448;2023-04-24T04:29:24;46.57;45.34;49.75;;
72736;Laerm;60856;53.238;10.448;2023-04-24T04:31:50;46.58;45.40;50.34;;
72736;Laerm;60856;53.238;10.448;2023-04-24T04:34:16;46.58;45.32;49.80;;
72736;Laerm;60856;53.238;10.448;2023-04-24T04:36:41;46.58;45.31;50.01;;
72736;Laerm;60856;53.238;10.448;2023-04-24T04:39:07;46.60;45.34;49.82;;
72736;Laerm;60856;53.238;10.448;2023-04-24T04:41:33;46.99;45.39;49.80;;
72736;Laerm;60856;53.238;10.448;2023-04-24T04:44:00;46.59;45.12;49.51;;
72736;Laerm;60856;53.238;10.448;2023-04-24T04:46:25;46.57;45.03;49.96;;
72736;Laerm;60856;53.238;10.448;2023-04-24T04:48:51;46.59;45.13;49.63;;
72736;Laerm;60856;53.238;10.448;2023-04-24T04:51:16;46.57;45.15;49.79;;
72736;Laerm;60856;53.238;10.448;2023-04-24T04:53:41;46.82;45.38;50.37;;
72736;Laerm;60856;53.238;10.448;2023-04-24T04:56:07;47.36;45.44;50.55;;
72736;Laerm;60856;53.238;10.448;2023-04-24T04:58:32;47.41;45.47;51.49;;
72736;Laerm;60856;53.238;10.448;2023-04-24T05:00:58;50.70;49.40;52.31;;
72736;Laerm;60856;53.238;10.448;2023-04-24T05:03:24;47.74;45.37;52.11;;
72736;Laerm;60856;53.238;10.448;2023-04-24T05:05:49;46.83;45.46;50.84;;
72736;Laerm;60856;53.238;10.448;2023-04-24T05:08:14;47.60;45.98;50.45;;
72736;Laerm;60856;53.238;10.448;2023-04-24T05:10:39;47.16;45.53;49.98;;
72736;Laerm;60856;53.238;10.448;2023-04-24T05:13:05;46.74;45.08;49.58;;
72736;Laerm;60856;53.238;10.448;2023-04-24T05:15:30;46.80;45.28;50.40;;
72736;Laerm;60856;53.238;10.448;2023-04-24T05:17:55;47.73;45.71;50.97;;
72736;Laerm;60856;53.238;10.448;2023-04-24T05:20:21;49.72;47.03;53.00;;
72736;Laerm;60856;53.238;10.448;2023-04-24T05:22:46;47.15;45.30;50.41;;
72736;Laerm;60856;53.238;10.448;2023-04-24T05:25:11;46.71;45.44;49.61;;
72736;Laerm;60856;53.238;10.448;2023-04-24T05:27:37;46.72;45.45;49.80;;
72736;Laerm;60856;53.238;10.448;2023-04-24T05:30:03;46.74;45.39;49.80;;
72736;Laerm;60856;53.238;10.448;2023-04-24T05:32:28;47.30;45.52;50.83;;
72736;Laerm;60856;53.238;10.448;2023-04-24T05:34:53;53.00;48.26;55.15;;
72736;Laerm;60856;53.238;10.448;2023-04-24T05:37:18;54.00;52.93;55.17;;
72736;Laerm;60856;53.238;10.448;2023-04-24T05:39:44;54.13;52.93;55.31;;
72736;Laerm;60856;53.238;10.448;2023-04-24T05:42:09;52.91;46.95;55.53;;
72736;Laerm;60856;53.238;10.448;2023-04-24T05:44:34;47.91;45.77;51.78;;
72736;Laerm;60856;53.238;10.448;2023-04-24T05:47:00;52.67;49.81;54.84;;
72736;Laerm;60856;53.238;10.448;2023-04-24T05:49:25;53.08;51.00;54.90;;
72736;Laerm;60856;53.238;10.448;2023-04-24T05:51:58;51.52;48.86;53.58;;
72736;Laerm;60856;53.238;10.448;2023-04-24T05:54:23;47.77;45.59;52.39;;
72736;Laerm;60856;53.238;10.448;2023-04-24T05:56:49;46.91;45.55;50.28;;
72736;Laerm;60856;53.238;10.448;2023-04-24T05:59:14;47.28;45.55;50.32;;
72736;Laerm;60856;53.238;10.448;2023-04-24T06:01:40;48.24;46.72;51.17;;
72736;Laerm;60856;53.238;10.448;2023-04-24T06:04:05;48.13;46.32;51.24;;
72736;Laerm;60856;53.238;10.448;2023-04-24T06:06:31;49.83;47.40;52.29;;
72736;Laerm;60856;53.238;10.448;2023-04-24T06:08:57;51.06;48.02;54.05;;
72736;Laerm;60856;53.238;10.448;2023-04-24T06:11:23;53.40;50.79;55.34;;
72736;Laerm;60856;53.238;10.448;2023-04-24T06:13:49;53.27;51.91;54.69;;
72736;Laerm;60856;53.238;10.448;2023-04-24T06:16:15;52.42;48.80;54.74;;
72736;Laerm;60856;53.238;10.448;2023-04-24T06:18:40;50.11;48.18;52.46;;
72736;Laerm;60856;53.238;10.448;2023-04-24T06:21:05;50.19;48.35;54.95;;
72736;Laerm;60856;53.238;10.448;2023-04-24T06:23:31;53.00;49.50;54.55;;
72736;Laerm;60856;53.238;10.448;2023-04-24T06:25:58;53.57;52.20;54.81;;
72736;Laerm;60856;53.238;10.448;2023-04-24T06:28:23;53.39;51.25;54.75;;
72736;Laerm;60856;53.238;10.448;2023-04-24T06:30:48;53.45;51.46;55.42;;
72736;Laerm;60856;53.238;10.448;2023-04-24T06:33:13;53.30;50.46;55.17;;
72736;Laerm;60856;53.238;10.448;2023-04-24T06:35:39;54.05;52.37;55.37;;
72736;Laerm;60856;53.238;10.448;2023-04-24T06:38:04;53.21;51.17;55.03;;
72736;Laerm;60856;53.238;10.448;2023-04-24T06:40:29;53.56;51.93;55.14;;
72736;Laerm;60856;53.238;10.448;2023-04-24T06:42:55;54.00;52.61;55.25;;
72736;Laerm;60856;53.238;10.448;2023-04-24T06:45:20;53.73;52.02;55.21;;
72736;Laerm;60856;53.238;10.448;2023-04-24T06:47:46;53.70;52.48;55.05;;
72736;Laerm;60856;53.238;10.448;2023-04-24T06:50:11;52.91;51.34;54.35;;
72736;Laerm;60856;53.238;10.448;2023-04-24T06:52:36;52.95;50.64;55.08;;
72736;Laerm;60856;53.238;10.448;2023-04-24T06:55:02;54.10;53.07;55.24;;
72736;Laerm;60856;53.238;10.448;2023-04-24T06:57:28;54.05;52.98;55.36;;
72736;Laerm;60856;53.238;10.448;2023-04-24T06:59:53;53.96;51.41;55.40;;
72736;Laerm;60856;53.238;10.448;2023-04-24T07:02:18;53.38;49.93;55.05;;
72736;Laerm;60856;53.238;10.448;2023-04-24T07:04:43;51.71;45.69;53.83;;
72736;Laerm;60856;53.238;10.448;2023-04-24T07:07:08;53.00;46.92;55.96;;
72736;Laerm;60856;53.238;10.448;2023-04-24T07:09:37;51.01;45.30;55.72;;
72736;Laerm;60856;53.238;10.448;2023-04-24T07:12:05;49.81;45.44;55.75;;
72736;Laerm;60856;53.238;10.448;2023-04-24T07:14:32;48.53;45.56;54.75;;
72736;Laerm;60856;53.238;10.448;2023-04-24T07:16:57;46.91;45.56;51.00;;
72736;Laerm;60856;53.238;10.448;2023-04-24T07:19:22;46.72;45.40;49.58;;
72736;Laerm;60856;53.238;10.448;2023-04-24T07:21:47;46.71;45.48;49.61;;
72736;Laerm;60856;53.238;10.448;2023-04-24T07:24:13;46.68;45.24;49.80;;
72736;Laerm;60856;53.238;10.448;2023-04-24T07:26:38;46.68;45.33;50.00;;
72736;Laerm;60856;53.238;10.448;2023-04-24T07:29:04;46.66;45.42;49.86;;
72736;Laerm;60856;53.238;10.448;2023-04-24T07:31:30;46.67;45.26;50.25;;
72736;Laerm;60856;53.238;10.448;2023-04-24T07:33:55;46.66;45.10;49.66;;
72736;Laerm;60856;53.238;10.448;2023-04-24T07:36:23;46.67;45.33;49.77;;
72736;Laerm;60856;53.238;10.448;2023-04-24T07:38:49;46.67;45.37;50.36;;
72736;Laerm;60856;53.238;10.448;2023-04-24T07:41:14;46.65;45.24;49.98;;
72736;Laerm;60856;53.238;10.448;2023-04-24T07:43:40;46.67;45.37;49.98;;
72736;Laerm;60856;53.238;10.448;2023-04-24T07:46:05;46.66;45.37;49.56;;
72736;Laerm;60856;53.238;10.448;2023-04-24T07:48:31;46.66;45.22;49.81;;
72736;Laerm;60856;53.238;10.448;2023-04-24T07:50:56;46.66;45.31;49.95;;
72736;Laerm;60856;53.238;10.448;2023-04-24T07:53:21;46.67;45.30;49.77;;
72736;Laerm;60856;53.238;10.448;2023-04-24T07:55:46;46.68;45.28;50.38;;
72736;Laerm;60856;53.238;10.448;2023-04-24T07:58:12;46.67;45.33;49.93;;
72736;Laerm;60856;53.238;10.448;2023-04-24T08:00:37;46.68;45.44;50.17;;
72736;Laerm;60856;53.238;10.448;2023-04-24T08:03:02;46.67;45.34;50.25;;
72736;Laerm;60856;53.238;10.448;2023-04-24T08:05:27;46.65;45.10;50.00;;
72736;Laerm;60856;53.238;10.448;2023-04-24T08:07:53;46.64;45.24;49.86;;
72736;Laerm;60856;53.238;10.448;2023-04-24T08:10:20;46.65;45.16;50.44;;
72736;Laerm;60856;53.238;10.448;2023-04-24T08:12:45;46.66;45.16;49.97;;
72736;Laerm;60856;53.238;10.448;2023-04-24T08:15:10;46.64;45.41;49.61;;
72736;Laerm;60856;53.238;10.448;2023-04-24T08:17:36;46.68;45.27;49.92;;
72736;Laerm;60856;53.238;10.448;2023-04-24T08:20:02;46.68;45.12;49.82;;
72736;Laerm;60856;53.238;10.448;2023-04-24T08:22:28;46.67;45.42;49.80;;
72736;Laerm;60856;53.238;10.448;2023-04-24T08:24:54;46.66;45.35;50.53;;
72736;Laerm;60856;53.238;10.448;2023-04-24T08:27:19;46.67;45.32;49.84;;
72736;Laerm;60856;53.238;10.448;2023-04-24T08:29:44;46.67;45.28;50.45;;
72736;Laerm;60856;53.238;10.448;2023-04-24T08:32:10;46.65;45.21;49.83;;
72736;Laerm;60856;53.238;10.448;2023-04-24T08:34:35;46.66;45.16;49.86;;
72736;Laerm;60856;53.238;10.448;2023-04-24T08:37:00;46.65;45.15;49.79;;
72736;Laerm;60856;53.238;10.448;2023-04-24T08:39:25;46.64;45.36;50.13;;
72736;Laerm;60856;53.238;10.448;2023-04-24T08:41:51;46.64;45.10;49.78;;
72736;Laerm;60856;53.238;10.448;2023-04-24T08:44:17;46.65;45.16;49.72;;
72736;Laerm;60856;53.238;10.448;2023-04-24T08:46:44;46.62;45.25;49.87;;
72736;Laerm;60856;53.238;10.448;2023-04-24T08:49:13;46.64;45.31;49.76;;
72736;Laerm;60856;53.238;10.448;2023-04-24T08:51:42;46.65;45.34;49.95;;
72736;Laerm;60856;53.238;10.448;2023-04-24T08:54:07;46.65;45.30;50.11;;
72736;Laerm;60856;53.238;10.448;2023-04-24T08:56:33;46.62;45.33;50.44;;
72736;Laerm;60856;53.238;10.448;2023-04-24T08:59:03;46.64;45.34;50.06;;
72736;Laerm;60856;53.238;10.448;2023-04-24T09:01:28;46.63;45.24;49.73;;
72736;Laerm;60856;53.238;10.448;2023-04-24T09:03:54;46.65;45.36;49.68;;
72736;Laerm;60856;53.238;10.448;2023-04-24T09:06:20;46.64;45.32;50.05;;
72736;Laerm;60856;53.238;10.448;2023-04-24T09:08:46;46.63;45.13;50.15;;
72736;Laerm;60856;53.238;10.448;2023-04-24T09:11:15;46.63;45.29;50.20;;
72736;Laerm;60856;53.238;10.448;2023-04-24T09:13:40;46.64;45.27;49.82;;
72736;Laerm;60856;53.238;10.448;2023-04-24T09:16:06;46.64;45.14;49.94;;
72736;Laerm;60856;53.238;10.448;2023-04-24T09:18:31;46.64;45.19;49.66;;
72736;Laerm;60856;53.238;10.448;2023-04-24T09:20:57;46.66;45.45;50.53;;
72736;Laerm;60856;53.238;10.448;2023-04-24T09:23:22;46.65;45.21;50.49;;
72736;Laerm;60856;53.238;10.448;2023-04-24T09:25:48;46.64;45.17;49.58;;
72736;Laerm;60856;53.238;10.448;2023-04-24T09:28:19;46.64;45.20;49.67;;
72736;Laerm;60856;53.238;10.448;2023-04-24T09:30:44;46.66;45.11;49.65;;
72736;Laerm;60856;53.238;10.448;2023-04-24T09:33:13;46.63;45.29;50.07;;
72736;Laerm;60856;53.238;10.448;2023-04-24T09:35:42;46.63;45.15;50.27;;
72736;Laerm;60856;53.238;10.448;2023-04-24T09:38:10;46.65;45.36;49.61;;
72736;Laerm;60856;53.238;10.448;2023-04-24T09:40:35;46.64;45.13;49.92;;
72736;Laerm;60856;53.238;10.448;2023-04-24T09:43:01;46.63;45.27;49.81;;
72736;Laerm;60856;53.238;10.448;2023-04-24T09:45:28;46.63;45.36;50.30;;
72736;Laerm;60856;53.238;10.448;2023-04-24T09:47:53;46.66;45.22;49.72;;
72736;Laerm;60856;53.238;10.448;2023-04-24T09:50:20;46.64;45.35;50.28;;
72736;Laerm;60856;53.238;10.448;2023-04-24T09:52:47;46.64;45.27;50.17;;
72736;Laerm;60856;53.238;10.448;2023-04-24T09:55:20;46.64;45.06;49.77;;
72736;Laerm;60856;53.238;10.448;2023-04-24T09:57:52;46.66;45.37;49.80;;
72736;Laerm;60856;53.238;10.448;2023-04-24T10:00:21;46.63;45.21;50.34;;
72736;Laerm;60856;53.238;10.448;2023-04-24T10:02:49;46.62;45.34;50.07;;
72736;Laerm;60856;53.238;10.448;2023-04-24T10:05:14;46.62;45.39;49.70;;
72736;Laerm;60856;53.238;10.448;2023-04-24T10:07:40;46.63;45.08;50.06;;
72736;Laerm;60856;53.238;10.448;2023-04-24T10:10:05;46.63;45.27;50.17;;
72736;Laerm;60856;53.238;10.448;2023-04-24T10:12:31;46.65;45.38;49.79;;
72736;Laerm;60856;53.238;10.448;2023-04-24T10:14:56;46.65;45.23;49.95;;
72736;Laerm;60856;53.238;10.448;2023-04-24T10:17:22;46.64;45.28;50.01;;
72736;Laerm;60856;53.238;10.448;2023-04-24T10:19:49;46.63;45.32;50.26;;
72736;Laerm;60856;53.238;10.448;2023-04-24T10:22:15;46.64;45.31;49.86;;
72736;Laerm;60856;53.238;10.448;2023-04-24T10:24:41;46.65;45.09;50.51;;
72736;Laerm;60856;53.238;10.448;2023-04-24T10:27:07;46.64;45.25;50.39;;
72736;Laerm;60856;53.238;10.448;2023-04-24T10:29:33;46.63;45.27;49.69;;
72736;Laerm;60856;53.238;10.448;2023-04-24T10:32:00;46.65;45.29;49.94;;
72736;Laerm;60856;53.238;10.448;2023-04-24T10:34:25;46.63;45.38;50.41;;
72736;Laerm;60856;53.238;10.448;2023-04-24T10:36:51;46.64;45.28;50.44;;
72736;Laerm;60856;53.238;10.448;2023-04-24T10:39:17;46.63;45.26;50.05;;
72736;Laerm;60856;53.238;10.448;2023-04-24T10:41:43;46.65;45.26;49.61;;
72736;Laerm;60856;53.238;10.448;2023-04-24T10:44:13;46.63;45.40;49.73;;
72736;Laerm;60856;53.238;10.448;2023-04-24T10:46:39;46.62;45.30;50.15;;
72736;Laerm;60856;53.238;10.448;2023-04-24T10:49:05;46.60;45.03;49.64;;
72736;Laerm;60856;53.238;10.448;2023-04-24T10:51:46;46.65;45.36;50.22;;
72736;Laerm;60856;53.238;10.448;2023-04-24T10:54:28;46.62;45.28;49.83;;
72736;Laerm;60856;53.238;10.448;2023-04-24T10:59:37;46.63;45.20;49.89;;
72736;Laerm;60856;53.238;10.448;2023-04-24T11:02:03;46.65;45.20;49.79;;
72736;Laerm;60856;53.238;10.448;2023-04-24T11:04:32;46.65;45.35;50.12;;
72736;Laerm;60856;53.238;10.448;2023-04-24T11:06:57;46.64;45.42;50.05;;
72736;Laerm;60856;53.238;10.448;2023-04-24T11:09:24;46.64;45.15;49.95;;
72736;Laerm;60856;53.238;10.448;2023-04-24T11:11:51;46.63;45.20;50.33;;
72736;Laerm;60856;53.238;10.448;2023-04-24T11:14:27;46.61;45.19;49.94;;
72736;Laerm;60856;53.238;10.448;2023-04-24T11:16:53;46.65;45.33;49.64;;
72736;Laerm;60856;53.238;10.448;2023-04-24T11:19:20;46.63;45.20;50.55;;
72736;Laerm;60856;53.238;10.448;2023-04-24T11:21:47;46.65;45.08;50.59;;
72736;Laerm;60856;53.238;10.448;2023-04-24T11:24:25;46.63;45.31;50.16;;
72736;Laerm;60856;53.238;10.448;2023-04-24T11:26:51;46.65;45.29;49.69;;
72736;Laerm;60856;53.238;10.448;2023-04-24T11:29:19;46.63;45.08;50.07;;
72736;Laerm;60856;53.238;10.448;2023-04-24T11:31:45;46.64;45.37;50.25;;
72736;Laerm;60856;53.238;10.448;2023-04-24T11:34:16;46.65;45.33;50.24;;
72736;Laerm;60856;53.238;10.448;2023-04-24T11:36:47;46.62;45.38;49.87;;
72736;Laerm;60856;53.238;10.448;2023-04-24T11:39:13;46.64;45.36;49.68;;
72736;Laerm;60856;53.238;10.448;2023-04-24T11:41:38;46.63;45.35;50.85;;
72736;Laerm;60856;53.238;10.448;2023-04-24T11:44:05;46.62;45.21;50.39;;
72736;Laerm;60856;53.238;10.448;2023-04-24T11:46:31;46.65;45.36;50.47;;
72736;Laerm;60856;53.238;10.448;2023-04-24T11:48:57;46.64;45.33;49.75;;
72736;Laerm;60856;53.238;10.448;2023-04-24T11:51:23;46.65;45.33;49.73;;
72736;Laerm;60856;53.238;10.448;2023-04-24T11:53:50;46.63;45.34;49.59;;
72736;Laerm;60856;53.238;10.448;2023-04-24T11:56:18;46.64;45.33;50.44;;
72736;Laerm;60856;53.238;10.448;2023-04-24T11:58:44;46.63;45.08;50.49;;
72736;Laerm;60856;53.238;10.448;2023-04-24T12:01:10;46.63;45.25;50.11;;
72736;Laerm;60856;53.238;10.448;2023-04-24T12:03:35;46.61;45.34;49.84;;
72736;Laerm;60856;53.238;10.448;2023-04-24T12:06:07;46.62;45.29;49.58;;
72736;Laerm;60856;53.238;10.448;2023-04-24T12:08:33;46.62;45.34;49.73;;
72736;Laerm;60856;53.238;10.448;2023-04-24T12:10:59;46.63;45.32;50.67;;
72736;Laerm;60856;53.238;10.448;2023-04-24T12:13:25;46.59;45.25;49.53;;
72736;Laerm;60856;53.238;10.448;2023-04-24T12:15:50;46.61;45.35;50.03;;
72736;Laerm;60856;53.238;10.448;2023-04-24T12:18:15;46.64;45.39;49.57;;
72736;Laerm;60856;53.238;10.448;2023-04-24T12:20:42;46.62;45.08;50.46;;
72736;Laerm;60856;53.238;10.448;2023-04-24T12:23:07;46.63;45.26;50.44;;
72736;Laerm;60856;53.238;10.448;2023-04-24T12:25:32;46.62;45.33;49.67;;
72736;Laerm;60856;53.238;10.448;2023-04-24T12:30:30;46.61;44.92;49.74;;
72736;Laerm;60856;53.238;10.448;2023-04-24T12:32:59;46.61;45.30;50.01;;
72736;Laerm;60856;53.238;10.448;2023-04-24T12:35:26;46.62;45.21;49.77;;
72736;Laerm;60856;53.238;10.448;2023-04-24T12:37:52;46.63;45.34;49.63;;
72736;Laerm;60856;53.238;10.448;2023-04-24T12:40:18;46.63;45.23;49.61;;
72736;Laerm;60856;53.238;10.448;2023-04-24T12:42:47;46.62;45.44;49.68;;
72736;Laerm;60856;53.238;10.448;2023-04-24T12:45:13;46.62;45.11;49.80;;
72736;Laerm;60856;53.238;10.448;2023-04-24T12:47:39;46.65;45.38;49.76;;
72736;Laerm;60856;53.238;10.448;2023-04-24T12:50:05;46.62;45.35;50.40;;
72736;Laerm;60856;53.238;10.448;2023-04-24T12:52:31;46.62;45.33;49.67;;
72736;Laerm;60856;53.238;10.448;2023-04-24T12:54:56;46.61;45.31;49.59;;
72736;Laerm;60856;53.238;10.448;2023-04-24T12:57:22;46.60;45.32;49.75;;
72736;Laerm;60856;53.238;10.448;2023-04-24T12:59:48;46.61;45.25;49.70;;
72736;Laerm;60856;53.238;10.448;2023-04-24T13:02:13;46.61;45.37;50.31;;
72736;Laerm;60856;53.238;10.448;2023-04-24T13:04:39;46.61;45.28;49.89;;
72736;Laerm;60856;53.238;10.448;2023-04-24T13:07:04;46.60;45.28;50.37;;
72736;Laerm;60856;53.238;10.448;2023-04-24T13:09:30;46.61;45.32;50.16;;
72736;Laerm;60856;53.238;10.448;2023-04-24T13:11:55;46.59;45.32;50.04;;
72736;Laerm;60856;53.238;10.448;2023-04-24T13:14:21;46.60;45.22;50.64;;
72736;Laerm;60856;53.238;10.448;2023-04-24T13:16:47;46.59;45.29;49.74;;
72736;Laerm;60856;53.238;10.448;2023-04-24T13:19:12;46.60;45.36;49.86;;
72736;Laerm;60856;53.238;10.448;2023-04-24T13:21:37;46.61;45.32;50.35;;
72736;Laerm;60856;53.238;10.448;2023-04-24T13:24:02;46.60;45.35;49.63;;
72736;Laerm;60856;53.238;10.448;2023-04-24T13:26:29;46.59;45.23;49.82;;
72736;Laerm;60856;53.238;10.448;2023-04-24T13:28:55;46.60;45.11;49.63;;
72736;Laerm;60856;53.238;10.448;2023-04-24T13:31:20;46.62;45.23;50.04;;
72736;Laerm;60856;53.238;10.448;2023-04-24T13:33:46;46.59;45.21;49.82;;
72736;Laerm;60856;53.238;10.448;2023-04-24T13:36:11;46.61;44.98;49.86;;
72736;Laerm;60856;53.238;10.448;2023-04-24T13:38:36;46.61;45.13;49.87;;
72736;Laerm;60856;53.238;10.448;2023-04-24T13:41:01;46.61;45.29;49.81;;
72736;Laerm;60856;53.238;10.448;2023-04-24T13:43:27;46.59;45.20;49.81;;
72736;Laerm;60856;53.238;10.448;2023-04-24T13:45:52;46.61;45.04;49.51;;
72736;Laerm;60856;53.238;10.448;2023-04-24T13:48:17;46.62;45.10;50.27;;
72736;Laerm;60856;53.238;10.448;2023-04-24T13:50:43;46.60;45.28;49.65;;
72736;Laerm;60856;53.238;10.448;2023-04-24T13:53:09;46.61;45.02;49.49;;
72736;Laerm;60856;53.238;10.448;2023-04-24T13:55:34;46.61;45.30;49.65;;
72736;Laerm;60856;53.238;10.448;2023-04-24T13:58:00;46.63;45.23;50.00;;
72736;Laerm;60856;53.238;10.448;2023-04-24T14:00:26;46.61;45.38;50.39;;
72736;Laerm;60856;53.238;10.448;2023-04-24T14:02:51;46.62;45.36;49.68;;
72736;Laerm;60856;53.238;10.448;2023-04-24T14:05:16;46.59;45.15;49.83;;